createdAt,value
2017-08-18T00:00:45.771Z,6.9
2017-08-18T00:01:48.634Z,6.9
2017-08-18T00:02:51.798Z,6.9
2017-08-18T00:03:54.631Z,6.9
2017-08-18T00:04:57.469Z,6.9
2017-08-18T00:06:00.988Z,6.9
2017-08-18T00:07:03.823Z,7
2017-08-18T00:08:06.684Z,6.9
2017-08-18T00:09:09.502Z,6.9
2017-08-18T00:10:12.672Z,6.9
2017-08-18T00:11:15.203Z,7
2017-08-18T00:12:17.706Z,6.9
2017-08-18T00:13:20.555Z,6.9
2017-08-18T00:14:23.055Z,6.9
2017-08-18T00:15:25.907Z,6.9
2017-08-18T00:16:28.392Z,7
2017-08-18T00:17:30.897Z,7
2017-08-18T00:18:33.748Z,6.9
2017-08-18T00:19:36.595Z,6.9
2017-08-18T00:20:39.094Z,6.9
2017-08-18T00:21:41.584Z,6.9
2017-08-18T00:22:44.068Z,6.8
2017-08-18T00:23:46.597Z,6.9
2017-08-18T00:24:49.430Z,6.9
2017-08-18T00:25:51.913Z,6.9
2017-08-18T00:26:54.441Z,6.9
2017-08-18T00:27:56.950Z,6.9
2017-08-18T00:29:00.137Z,6.9
2017-08-18T00:30:03.661Z,6.9
2017-08-18T00:31:06.158Z,7
2017-08-18T00:32:08.985Z,6.9
2017-08-18T00:33:11.507Z,6.9
2017-08-18T00:34:14.004Z,6.9
2017-08-18T00:35:16.498Z,7
2017-08-18T00:36:18.994Z,7
2017-08-18T00:37:21.527Z,6.9
2017-08-18T00:38:24.028Z,6.9
2017-08-18T00:39:26.530Z,6.9
2017-08-18T00:40:29.021Z,7
2017-08-18T00:41:31.521Z,7
2017-08-18T00:42:34.037Z,7
2017-08-18T00:43:36.861Z,6.9
2017-08-18T00:44:39.720Z,6.9
2017-08-18T00:45:42.573Z,6.9
2017-08-18T00:46:45.781Z,6.9
2017-08-18T00:47:48.274Z,7
2017-08-18T00:48:51.452Z,6.9
2017-08-18T00:49:53.924Z,6.9
2017-08-18T00:50:56.769Z,6.9
2017-08-18T00:51:59.267Z,6.9
2017-08-18T00:53:02.110Z,6.9
2017-08-18T00:54:05.296Z,7
2017-08-18T00:55:07.802Z,6.9
2017-08-18T00:56:10.965Z,7
2017-08-18T00:57:13.824Z,6.9
2017-08-18T00:58:16.996Z,6.8
2017-08-18T00:59:20.160Z,6.9
2017-08-18T01:00:23.370Z,7
2017-08-18T01:01:25.858Z,7
2017-08-18T01:02:28.353Z,6.9
2017-08-18T01:03:31.199Z,6.9
2017-08-18T01:04:33.694Z,7
2017-08-18T01:05:36.516Z,6.9
2017-08-18T01:06:39.022Z,7
2017-08-18T01:07:41.518Z,7
2017-08-18T01:08:44.021Z,7
2017-08-18T01:09:46.854Z,7
2017-08-18T01:10:49.692Z,6.9
2017-08-18T01:11:52.188Z,6.9
2017-08-18T01:12:54.699Z,7
2017-08-18T01:13:57.194Z,6.9
2017-08-18T01:14:59.703Z,6.9
2017-08-18T01:16:02.888Z,6.9
2017-08-18T01:17:05.729Z,7
2017-08-18T01:18:08.237Z,6.9
2017-08-18T01:19:10.735Z,6.9
2017-08-18T01:20:13.233Z,6.9
2017-08-18T01:21:16.066Z,6.9
2017-08-18T01:22:18.933Z,6.9
2017-08-18T01:23:21.430Z,6.9
2017-08-18T01:24:23.931Z,6.9
2017-08-18T01:25:26.426Z,7
2017-08-18T01:26:28.940Z,7
2017-08-18T01:27:32.115Z,7
2017-08-18T01:28:34.622Z,7
2017-08-18T01:29:37.110Z,7
2017-08-18T01:30:39.947Z,7
2017-08-18T01:31:42.772Z,6.9
2017-08-18T01:32:45.247Z,7
2017-08-18T01:33:47.744Z,7
2017-08-18T01:34:50.934Z,6.9
2017-08-18T01:35:53.429Z,7
2017-08-18T01:36:55.924Z,7
2017-08-18T01:37:58.429Z,7
2017-08-18T01:39:00.920Z,7
2017-08-18T01:40:04.130Z,7
2017-08-18T01:41:06.628Z,6.9
2017-08-18T01:42:09.781Z,6.9
2017-08-18T01:43:12.279Z,6.9
2017-08-18T01:44:15.114Z,6.9
2017-08-18T01:45:17.594Z,6.9
2017-08-18T01:46:20.767Z,6.9
2017-08-18T01:47:23.966Z,6.9
2017-08-18T01:48:26.811Z,6.9
2017-08-18T01:49:29.639Z,6.9
2017-08-18T01:50:32.137Z,6.9
2017-08-18T01:51:34.967Z,7
2017-08-18T01:52:37.808Z,6.9
2017-08-18T01:53:40.310Z,7
2017-08-18T01:54:43.816Z,7
2017-08-18T01:55:46.990Z,6.9
2017-08-18T01:56:50.164Z,6.9
2017-08-18T01:57:53.344Z,6.9
2017-08-18T01:58:55.846Z,7
2017-08-18T01:59:58.705Z,6.9
2017-08-18T02:01:01.216Z,7
2017-08-18T02:02:04.405Z,6.9
2017-08-18T02:03:06.906Z,6.9
2017-08-18T02:04:09.743Z,6.9
2017-08-18T02:05:12.249Z,6.9
2017-08-18T02:06:15.414Z,7
2017-08-18T02:07:18.241Z,6.9
2017-08-18T02:08:20.762Z,7
2017-08-18T02:09:23.268Z,6.9
2017-08-18T02:10:25.759Z,6.9
2017-08-18T02:11:28.597Z,6.9
2017-08-18T02:12:31.088Z,6.9
2017-08-18T02:13:33.620Z,6.9
2017-08-18T02:14:36.141Z,6.8
2017-08-18T02:15:38.990Z,6.9
2017-08-18T02:16:41.511Z,6.9
2017-08-18T02:17:44.012Z,6.9
2017-08-18T02:18:46.513Z,6.9
2017-08-18T02:19:49.015Z,6.9
2017-08-18T02:20:51.855Z,6.9
2017-08-18T02:21:54.360Z,6.8
2017-08-18T02:22:56.851Z,6.9
2017-08-18T02:23:59.429Z,6.9
2017-08-18T02:25:02.270Z,6.9
2017-08-18T02:26:05.109Z,6.9
2017-08-18T02:27:07.604Z,6.8
2017-08-18T02:28:10.553Z,6.9
2017-08-18T02:29:13.371Z,6.8
2017-08-18T02:30:15.878Z,7
2017-08-18T02:31:18.715Z,6.9
2017-08-18T02:32:21.209Z,6.9
2017-08-18T02:33:24.785Z,6.9
2017-08-18T02:34:27.293Z,6.9
2017-08-18T02:35:30.125Z,6.9
2017-08-18T02:36:32.618Z,6.9
2017-08-18T02:37:35.792Z,6.9
2017-08-18T02:38:38.648Z,6.9
2017-08-18T02:39:41.520Z,6.9
2017-08-18T02:40:44.376Z,6.9
2017-08-18T02:41:46.866Z,6.9
2017-08-18T02:42:49.708Z,6.9
2017-08-18T02:43:52.905Z,6.9
2017-08-18T02:44:55.417Z,6.8
2017-08-18T02:45:58.264Z,6.9
2017-08-18T02:47:00.790Z,6.8
2017-08-18T02:48:03.975Z,6.8
2017-08-18T02:49:06.447Z,6.8
2017-08-18T02:50:09.621Z,6.7
2017-08-18T02:51:12.461Z,6.7
2017-08-18T02:52:15.307Z,6.7
2017-08-18T02:53:18.154Z,6.7
2017-08-18T02:54:20.637Z,6.8
2017-08-18T02:55:23.467Z,6.7
2017-08-18T02:56:25.992Z,6.7
2017-08-18T02:57:28.497Z,6.7
2017-08-18T02:58:31.677Z,6.6
2017-08-18T02:59:34.169Z,6.4
2017-08-18T03:00:36.657Z,6.3
2017-08-18T03:01:39.503Z,6.4
2017-08-18T03:02:41.996Z,6.4
2017-08-18T03:03:44.489Z,6.4
2017-08-18T03:04:48.002Z,6.5
2017-08-18T03:05:50.846Z,6.5
2017-08-18T03:06:53.337Z,6.6
2017-08-18T03:07:56.509Z,6.6
2017-08-18T03:08:58.989Z,6.6
2017-08-18T03:10:01.503Z,6.6
2017-08-18T03:11:04.713Z,6.6
2017-08-18T03:12:07.541Z,6.6
2017-08-18T03:13:10.096Z,6.6
2017-08-18T03:14:13.945Z,6.5
2017-08-18T03:15:16.447Z,6.6
2017-08-18T03:16:19.012Z,6.6
2017-08-18T03:17:21.872Z,6.7
2017-08-18T03:18:24.710Z,6.6
2017-08-18T03:19:27.209Z,6.6
2017-08-18T03:20:29.690Z,6.6
2017-08-18T03:21:32.205Z,6.6
2017-08-18T03:22:34.694Z,6.6
2017-08-18T03:23:37.196Z,6.6
2017-08-18T03:24:39.694Z,6.7
2017-08-18T03:25:42.185Z,6.7
2017-08-18T03:26:45.366Z,6.6
2017-08-18T03:27:47.877Z,6.6
2017-08-18T03:28:50.702Z,6.6
2017-08-18T03:29:53.545Z,6.6
2017-08-18T03:30:56.408Z,6.6
2017-08-18T03:31:59.246Z,6.6
2017-08-18T03:33:01.759Z,6.6
2017-08-18T03:34:04.607Z,6.6
2017-08-18T03:35:07.092Z,6.7
2017-08-18T03:36:09.608Z,6.6
2017-08-18T03:37:12.433Z,6.7
2017-08-18T03:38:15.966Z,6.7
2017-08-18T03:39:19.147Z,6.7
2017-08-18T03:40:21.645Z,6.7
2017-08-18T03:41:24.140Z,6.7
2017-08-18T03:42:26.641Z,6.7
2017-08-18T03:43:29.128Z,6.6
2017-08-18T03:44:31.612Z,6.7
2017-08-18T03:45:34.101Z,6.6
2017-08-18T03:46:36.597Z,6.7
2017-08-18T03:47:39.788Z,6.6
2017-08-18T03:48:42.628Z,6.7
2017-08-18T03:49:45.469Z,6.6
2017-08-18T03:50:47.959Z,6.6
2017-08-18T03:51:50.799Z,6.7
2017-08-18T03:52:53.293Z,6.6
2017-08-18T03:53:55.811Z,6.6
2017-08-18T03:54:58.300Z,6.6
2017-08-18T03:56:00.808Z,6.6
2017-08-18T03:57:03.631Z,6.7
2017-08-18T03:58:06.497Z,6.7
2017-08-18T03:59:09.320Z,6.6
2017-08-18T04:00:12.161Z,6.7
2017-08-18T04:01:14.652Z,6.6
2017-08-18T04:02:17.175Z,6.7
2017-08-18T04:03:20.016Z,6.6
2017-08-18T04:04:22.869Z,6.6
2017-08-18T04:05:25.362Z,6.6
2017-08-18T04:06:27.855Z,6.7
2017-08-18T04:07:30.696Z,6.6
2017-08-18T04:08:33.195Z,6.6
2017-08-18T04:09:35.684Z,6.6
2017-08-18T04:10:38.537Z,6.6
2017-08-18T04:11:41.358Z,6.7
2017-08-18T04:12:44.199Z,6.6
2017-08-18T04:13:47.037Z,6.6
2017-08-18T04:14:50.210Z,6.6
2017-08-18T04:15:53.050Z,6.6
2017-08-18T04:16:56.213Z,6.6
2017-08-18T04:17:59.058Z,6.6
2017-08-18T04:19:01.900Z,6.6
2017-08-18T04:20:04.382Z,6.6
2017-08-18T04:21:07.239Z,6.6
2017-08-18T04:22:09.747Z,6.6
2017-08-18T04:23:12.920Z,6.5
2017-08-18T04:24:15.420Z,6.6
2017-08-18T04:25:18.604Z,6.6
2017-08-18T04:26:21.094Z,6.6
2017-08-18T04:27:23.600Z,6.6
2017-08-18T04:28:26.094Z,6.5
2017-08-18T04:29:28.612Z,6.6
2017-08-18T04:30:31.131Z,6.5
2017-08-18T04:31:33.627Z,6.6
2017-08-18T04:32:36.472Z,6.6
2017-08-18T04:33:39.309Z,6.6
2017-08-18T04:34:42.464Z,6.6
2017-08-18T04:35:45.640Z,6.5
2017-08-18T04:36:48.142Z,6.6
2017-08-18T04:37:50.635Z,6.6
2017-08-18T04:38:53.125Z,6.6
2017-08-18T04:39:55.621Z,6.6
2017-08-18T04:40:58.116Z,6.6
2017-08-18T04:42:00.629Z,6.5
2017-08-18T04:43:03.445Z,6.5
2017-08-18T04:44:05.952Z,6.5
2017-08-18T04:45:08.785Z,6.5
2017-08-18T04:46:11.274Z,6.5
2017-08-18T04:47:13.773Z,6.5
2017-08-18T04:48:16.610Z,6.6
2017-08-18T04:49:19.107Z,6.6
2017-08-18T04:50:21.960Z,6.6
2017-08-18T04:51:24.793Z,6.6
2017-08-18T04:52:27.617Z,6.6
2017-08-18T04:53:30.138Z,6.6
2017-08-18T04:54:32.622Z,6.6
2017-08-18T04:55:35.124Z,6.6
2017-08-18T04:56:37.953Z,6.6
2017-08-18T04:57:40.446Z,6.5
2017-08-18T04:58:42.963Z,6.6
2017-08-18T04:59:45.457Z,6.6
2017-08-18T05:00:47.939Z,6.6
2017-08-18T05:01:50.800Z,6.6
2017-08-18T05:02:53.304Z,6.6
2017-08-18T05:03:56.480Z,6.6
2017-08-18T05:04:59.324Z,6.6
2017-08-18T05:06:02.190Z,6.6
2017-08-18T05:07:04.692Z,6.7
2017-08-18T05:08:07.207Z,6.6
2017-08-18T05:09:10.735Z,6.6
2017-08-18T05:10:13.569Z,6.6
2017-08-18T05:11:16.076Z,6.6
2017-08-18T05:12:19.639Z,6.6
2017-08-18T05:13:41.650Z,6.6
2017-08-18T05:14:44.105Z,6.6
2017-08-18T05:15:46.542Z,6.6
2017-08-18T05:16:50.067Z,6.5
2017-08-18T05:17:53.562Z,6.6
2017-08-18T05:18:56.016Z,6.6
2017-08-18T05:19:58.456Z,6.6
2017-08-18T05:21:01.596Z,6.6
2017-08-18T05:22:04.392Z,6.6
2017-08-18T05:23:07.193Z,6.6
2017-08-18T05:24:09.663Z,6.6
2017-08-18T05:25:12.107Z,6.6
2017-08-18T05:26:15.253Z,6.6
2017-08-18T05:27:18.391Z,6.6
2017-08-18T05:28:20.844Z,6.5
2017-08-18T05:29:23.673Z,6.6
2017-08-18T05:30:26.138Z,6.6
2017-08-18T05:31:28.594Z,6.6
2017-08-18T05:32:31.379Z,6.6
2017-08-18T05:33:33.846Z,6.6
2017-08-18T05:34:36.289Z,6.6
2017-08-18T05:35:38.755Z,6.6
2017-08-18T05:36:41.539Z,6.6
2017-08-18T05:37:44.692Z,6.7
2017-08-18T05:38:47.826Z,6.6
2017-08-18T05:39:50.296Z,6.6
2017-08-18T05:40:52.754Z,6.6
2017-08-18T05:41:55.225Z,6.6
2017-08-18T05:42:58.414Z,6.6
2017-08-18T05:44:00.872Z,6.6
2017-08-18T05:45:03.668Z,6.6
2017-08-18T05:46:06.801Z,6.6
2017-08-18T05:47:09.934Z,6.6
2017-08-18T05:48:12.754Z,6.6
2017-08-18T05:49:15.899Z,6.6
2017-08-18T05:50:18.345Z,6.6
2017-08-18T05:51:22.549Z,6.6
2017-08-18T05:52:24.998Z,6.6
2017-08-18T05:53:27.452Z,6.6
2017-08-18T05:54:30.240Z,6.6
2017-08-18T05:55:32.696Z,6.7
2017-08-18T05:56:35.481Z,6.6
2017-08-18T05:57:38.288Z,6.6
2017-08-18T05:58:41.081Z,6.6
2017-08-18T05:59:43.888Z,6.6
2017-08-18T06:00:46.359Z,6.7
2017-08-18T06:01:48.822Z,6.6
2017-08-18T06:02:51.269Z,6.6
2017-08-18T06:03:54.413Z,6.6
2017-08-18T06:04:56.877Z,6.6
2017-08-18T06:05:59.345Z,6.6
2017-08-18T06:07:02.816Z,6.6
2017-08-18T06:08:05.611Z,6.6
2017-08-18T06:09:08.084Z,6.6
2017-08-18T06:10:10.888Z,6.7
2017-08-18T06:11:13.701Z,6.7
2017-08-18T06:12:16.507Z,6.6
2017-08-18T06:13:18.974Z,6.6
2017-08-18T06:14:21.764Z,6.6
2017-08-18T06:15:24.215Z,6.6
2017-08-18T06:16:27.011Z,6.6
2017-08-18T06:17:30.173Z,6.7
2017-08-18T06:18:32.629Z,6.6
2017-08-18T06:19:35.092Z,6.7
2017-08-18T06:20:37.899Z,6.6
2017-08-18T06:21:40.697Z,6.6
2017-08-18T06:22:43.509Z,6.7
2017-08-18T06:23:45.970Z,6.7
2017-08-18T06:24:48.411Z,6.7
2017-08-18T06:25:51.213Z,6.7
2017-08-18T06:26:54.011Z,6.7
2017-08-18T06:27:56.472Z,6.7
2017-08-18T06:28:59.274Z,6.6
2017-08-18T06:30:02.418Z,6.7
2017-08-18T06:31:05.563Z,6.6
2017-08-18T06:32:09.393Z,6.6
2017-08-18T06:33:12.526Z,6.6
2017-08-18T06:34:15.633Z,6.6
2017-08-18T06:35:18.453Z,6.6
2017-08-18T06:36:21.597Z,6.7
2017-08-18T06:37:24.074Z,6.7
2017-08-18T06:38:26.543Z,6.7
2017-08-18T06:39:29.675Z,6.7
2017-08-18T06:40:32.803Z,6.6
2017-08-18T06:41:35.618Z,6.7
2017-08-18T06:42:38.409Z,6.7
2017-08-18T06:43:41.233Z,6.7
2017-08-18T06:44:44.038Z,6.6
2017-08-18T06:45:46.828Z,6.6
2017-08-18T06:46:49.615Z,6.7
2017-08-18T06:47:52.423Z,6.6
2017-08-18T06:48:54.881Z,6.6
2017-08-18T06:49:57.337Z,6.7
2017-08-18T06:50:59.793Z,6.7
2017-08-18T06:52:02.591Z,6.6
2017-08-18T06:53:05.062Z,6.7
2017-08-18T06:54:07.857Z,6.7
2017-08-18T06:55:10.310Z,6.7
2017-08-18T06:56:12.776Z,6.7
2017-08-18T06:57:15.556Z,6.7
2017-08-18T06:58:18.702Z,6.7
2017-08-18T06:59:21.181Z,6.7
2017-08-18T07:00:23.634Z,6.7
2017-08-18T07:01:26.097Z,6.7
2017-08-18T07:02:29.289Z,6.7
2017-08-18T07:03:31.750Z,6.7
2017-08-18T07:04:34.890Z,6.7
2017-08-18T07:05:37.326Z,6.8
2017-08-18T07:06:40.481Z,6.7
2017-08-18T07:07:43.298Z,6.7
2017-08-18T07:08:46.099Z,6.7
2017-08-18T07:09:48.564Z,6.7
2017-08-18T07:10:51.364Z,6.8
2017-08-18T07:11:53.815Z,6.8
2017-08-18T07:12:56.280Z,6.8
2017-08-18T07:13:59.081Z,6.7
2017-08-18T07:15:01.904Z,6.7
2017-08-18T07:16:04.355Z,6.8
2017-08-18T07:17:06.814Z,6.8
2017-08-18T07:18:09.615Z,6.8
2017-08-18T07:19:12.411Z,6.8
2017-08-18T07:20:15.212Z,6.8
2017-08-18T07:21:18.016Z,6.8
2017-08-18T07:22:21.175Z,6.8
2017-08-18T07:23:23.654Z,6.8
2017-08-18T07:24:26.138Z,6.8
2017-08-18T07:25:28.942Z,6.8
2017-08-18T07:26:31.398Z,6.8
2017-08-18T07:27:33.869Z,6.8
2017-08-18T07:28:36.679Z,6.8
2017-08-18T07:29:39.502Z,6.8
2017-08-18T07:30:41.956Z,6.8
2017-08-18T07:31:44.423Z,6.8
2017-08-18T07:32:47.229Z,6.8
2017-08-18T07:33:50.379Z,6.9
2017-08-18T07:34:53.177Z,6.8
2017-08-18T07:35:55.641Z,6.8
2017-08-18T07:36:58.458Z,6.8
2017-08-18T07:38:01.265Z,6.8
2017-08-18T07:39:04.413Z,6.8
2017-08-18T07:40:07.210Z,6.8
2017-08-18T07:41:09.663Z,6.8
2017-08-18T07:42:12.120Z,6.8
2017-08-18T07:43:14.932Z,6.8
2017-08-18T07:44:17.748Z,6.8
2017-08-18T07:45:20.203Z,6.8
2017-08-18T07:46:22.999Z,6.8
2017-08-18T07:47:25.801Z,6.8
2017-08-18T07:48:28.944Z,6.8
2017-08-18T07:49:31.420Z,6.8
2017-08-18T07:50:34.222Z,6.8
2017-08-18T07:51:36.684Z,6.8
2017-08-18T07:52:39.476Z,6.8
2017-08-18T07:53:41.933Z,6.8
2017-08-18T07:54:44.741Z,6.9
2017-08-18T07:55:47.207Z,6.9
2017-08-18T07:56:50.666Z,6.8
2017-08-18T07:57:53.135Z,6.9
2017-08-18T07:58:55.601Z,6.8
2017-08-18T07:59:58.766Z,6.9
2017-08-18T08:01:02.615Z,6.9
2017-08-18T08:02:05.425Z,6.9
2017-08-18T08:03:08.906Z,6.9
2017-08-18T08:04:12.064Z,6.9
2017-08-18T08:05:14.519Z,6.9
2017-08-18T08:06:17.661Z,6.9
2017-08-18T08:07:20.461Z,6.9
2017-08-18T08:08:23.280Z,6.9
2017-08-18T08:09:25.746Z,6.9
2017-08-18T08:10:28.222Z,6.9
2017-08-18T08:11:30.693Z,6.9
2017-08-18T08:12:33.150Z,6.8
2017-08-18T08:13:35.602Z,6.8
2017-08-18T08:14:38.433Z,6.8
2017-08-18T08:15:41.578Z,6.9
2017-08-18T08:16:44.028Z,6.9
2017-08-18T08:17:46.490Z,6.9
2017-08-18T08:18:48.952Z,6.9
2017-08-18T08:19:51.425Z,6.9
2017-08-18T08:20:54.246Z,6.9
2017-08-18T08:21:57.379Z,6.9
2017-08-18T08:22:59.829Z,6.9
2017-08-18T08:24:02.637Z,6.9
2017-08-18T08:25:05.133Z,6.9
2017-08-18T08:26:07.923Z,6.9
2017-08-18T08:27:10.725Z,6.9
2017-08-18T08:28:13.524Z,6.9
2017-08-18T08:29:16.700Z,6.9
2017-08-18T08:30:19.500Z,6.9
2017-08-18T08:31:21.954Z,6.9
2017-08-18T08:32:24.404Z,6.9
2017-08-18T08:33:26.885Z,6.9
2017-08-18T08:34:29.353Z,7
2017-08-18T08:35:32.833Z,7
2017-08-18T08:36:35.627Z,7
2017-08-18T08:37:38.423Z,7
2017-08-18T08:38:41.591Z,7
2017-08-18T08:39:44.058Z,7
2017-08-18T08:40:47.535Z,7
2017-08-18T08:41:49.994Z,7
2017-08-18T08:42:52.456Z,7
2017-08-18T08:43:54.914Z,7
2017-08-18T08:44:57.385Z,7.1
2017-08-18T08:46:00.178Z,7
2017-08-18T08:47:02.978Z,7
2017-08-18T08:48:06.129Z,7
2017-08-18T08:49:08.933Z,7
2017-08-18T08:50:11.402Z,6.9
2017-08-18T08:51:14.882Z,7
2017-08-18T08:52:18.017Z,6.9
2017-08-18T08:53:20.834Z,6.9
2017-08-18T08:54:23.637Z,7
2017-08-18T08:55:26.079Z,6.9
2017-08-18T08:56:28.560Z,7
2017-08-18T08:57:31.026Z,7
2017-08-18T08:58:33.481Z,6.9
2017-08-18T08:59:35.952Z,7
2017-08-18T09:00:38.418Z,6.9
2017-08-18T09:01:40.873Z,7
2017-08-18T09:02:43.693Z,6.9
2017-08-18T09:03:46.816Z,7
2017-08-18T09:04:49.973Z,6.9
2017-08-18T09:05:53.458Z,7
2017-08-18T09:06:56.261Z,6.9
2017-08-18T09:07:59.064Z,6.9
2017-08-18T09:09:01.877Z,6.9
2017-08-18T09:10:04.670Z,6.9
2017-08-18T09:11:07.798Z,6.9
2017-08-18T09:12:10.958Z,6.9
2017-08-18T09:13:13.767Z,6.9
2017-08-18T09:14:16.222Z,6.9
2017-08-18T09:15:19.035Z,6.9
2017-08-18T09:16:21.908Z,7
2017-08-18T09:17:24.708Z,6.9
2017-08-18T09:18:27.516Z,6.9
2017-08-18T09:19:30.317Z,6.9
2017-08-18T09:20:32.772Z,6.9
2017-08-18T09:21:35.288Z,6.9
2017-08-18T09:22:38.130Z,7
2017-08-18T09:23:40.978Z,7
2017-08-18T09:24:43.783Z,7
2017-08-18T09:25:46.253Z,7
2017-08-18T09:26:49.066Z,6.9
2017-08-18T09:27:52.208Z,7
2017-08-18T09:28:54.999Z,7
2017-08-18T09:29:58.168Z,7
2017-08-18T09:31:00.622Z,7
2017-08-18T09:32:03.780Z,7
2017-08-18T09:33:06.911Z,7
2017-08-18T09:34:10.075Z,7
2017-08-18T09:35:12.543Z,7.1
2017-08-18T09:36:15.011Z,7
2017-08-18T09:37:18.351Z,7
2017-08-18T09:38:21.830Z,7
2017-08-18T09:39:24.288Z,7
2017-08-18T09:40:27.092Z,7
2017-08-18T09:41:29.551Z,7
2017-08-18T09:42:32.026Z,7
2017-08-18T09:43:34.504Z,7
2017-08-18T09:44:36.971Z,7
2017-08-18T09:45:40.446Z,7
2017-08-18T09:46:42.899Z,7.1
2017-08-18T09:47:45.385Z,7
2017-08-18T09:48:48.194Z,7
2017-08-18T09:49:50.654Z,7.1
2017-08-18T09:50:53.448Z,7.1
2017-08-18T09:51:56.584Z,7.1
2017-08-18T09:52:59.080Z,7.1
2017-08-18T09:54:01.879Z,7.1
2017-08-18T09:55:04.659Z,7.1
2017-08-18T09:56:07.141Z,7.1
2017-08-18T09:57:09.960Z,7
2017-08-18T09:58:12.428Z,7.1
2017-08-18T09:59:15.237Z,7.1
2017-08-18T10:00:18.708Z,7.1
2017-08-18T10:01:21.521Z,7.1
2017-08-18T10:02:24.004Z,7
2017-08-18T10:03:26.469Z,7.1
2017-08-18T10:04:29.273Z,7.1
2017-08-18T10:05:32.063Z,7.1
2017-08-18T10:06:34.518Z,7.1
2017-08-18T10:07:37.005Z,7.1
2017-08-18T10:08:40.148Z,7.1
2017-08-18T10:09:42.933Z,7.1
2017-08-18T10:10:45.744Z,7.1
2017-08-18T10:11:48.239Z,7.1
2017-08-18T10:12:50.693Z,7.1
2017-08-18T10:13:53.175Z,7.1
2017-08-18T10:14:55.645Z,7.1
2017-08-18T10:15:58.444Z,7.1
2017-08-18T10:17:01.240Z,7.1
2017-08-18T10:18:04.043Z,7.1
2017-08-18T10:19:06.495Z,7.1
2017-08-18T10:20:09.302Z,7.1
2017-08-18T10:21:12.154Z,7.1
2017-08-18T10:22:14.964Z,7.1
2017-08-18T10:23:17.766Z,7.1
2017-08-18T10:24:20.222Z,7.1
2017-08-18T10:25:23.013Z,7
2017-08-18T10:26:26.175Z,7.1
2017-08-18T10:27:28.635Z,7.1
2017-08-18T10:28:31.101Z,7.1
2017-08-18T10:29:34.244Z,7.2
2017-08-18T10:30:36.702Z,7.1
2017-08-18T10:31:39.189Z,7.1
2017-08-18T10:32:41.658Z,7.1
2017-08-18T10:33:44.459Z,7.1
2017-08-18T10:34:46.927Z,7.1
2017-08-18T10:35:49.728Z,7.1
2017-08-18T10:36:52.190Z,7
2017-08-18T10:37:54.656Z,7
2017-08-18T10:38:57.461Z,7.1
2017-08-18T10:39:59.925Z,7
2017-08-18T10:41:03.406Z,7
2017-08-18T10:42:06.196Z,7.1
2017-08-18T10:43:08.655Z,7.1
2017-08-18T10:44:11.476Z,7.1
2017-08-18T10:45:14.272Z,7.1
2017-08-18T10:46:17.416Z,7.1
2017-08-18T10:47:19.882Z,7
2017-08-18T10:48:22.686Z,7.1
2017-08-18T10:49:25.490Z,7.1
2017-08-18T10:50:28.300Z,7.1
2017-08-18T10:51:31.109Z,7.1
2017-08-18T10:52:33.585Z,7
2017-08-18T10:53:36.718Z,7.1
2017-08-18T10:54:39.182Z,7
2017-08-18T10:55:41.636Z,7.1
2017-08-18T10:56:44.102Z,7
2017-08-18T10:57:46.561Z,7
2017-08-18T10:58:49.691Z,7.1
2017-08-18T10:59:52.151Z,7
2017-08-18T11:00:55.291Z,7
2017-08-18T11:01:57.772Z,7
2017-08-18T11:03:00.559Z,7
2017-08-18T11:04:04.042Z,7
2017-08-18T11:05:07.209Z,7
2017-08-18T11:06:10.345Z,7
2017-08-18T11:07:13.160Z,7
2017-08-18T11:08:15.622Z,7
2017-08-18T11:09:18.741Z,7
2017-08-18T11:10:21.543Z,7
2017-08-18T11:11:24.007Z,7
2017-08-18T11:12:26.471Z,7
2017-08-18T11:13:28.928Z,7
2017-08-18T11:14:32.420Z,7
2017-08-18T11:15:35.218Z,7
2017-08-18T11:16:38.350Z,7.1
2017-08-18T11:17:41.500Z,7
2017-08-18T11:18:44.302Z,7.1
2017-08-18T11:19:47.108Z,7.1
2017-08-18T11:20:50.242Z,7
2017-08-18T11:21:52.700Z,7.1
2017-08-18T11:22:55.500Z,7.1
2017-08-18T11:23:58.322Z,7
2017-08-18T11:25:00.775Z,7
2017-08-18T11:26:03.942Z,7
2017-08-18T11:27:06.732Z,7
2017-08-18T11:28:09.191Z,7.1
2017-08-18T11:29:11.991Z,7
2017-08-18T11:30:15.826Z,7
2017-08-18T11:31:18.649Z,7
2017-08-18T11:32:21.108Z,7
2017-08-18T11:33:23.927Z,7
2017-08-18T11:34:26.406Z,7
2017-08-18T11:35:28.865Z,7
2017-08-18T11:36:31.665Z,7
2017-08-18T11:37:34.479Z,7
2017-08-18T11:38:36.938Z,7
2017-08-18T11:39:39.416Z,7
2017-08-18T11:40:42.217Z,7.1
2017-08-18T11:41:45.017Z,7
2017-08-18T11:42:47.508Z,7.1
2017-08-18T11:43:50.666Z,7
2017-08-18T11:44:53.801Z,7
2017-08-18T11:45:56.606Z,7
2017-08-18T11:46:59.397Z,7
2017-08-18T11:48:02.542Z,7
2017-08-18T11:49:05.686Z,7
2017-08-18T11:50:09.154Z,7
2017-08-18T11:51:12.644Z,7
2017-08-18T11:52:15.437Z,7
2017-08-18T11:53:18.236Z,7
2017-08-18T11:54:20.715Z,7
2017-08-18T11:55:23.851Z,7
2017-08-18T11:56:26.659Z,7
2017-08-18T11:57:29.121Z,7
2017-08-18T11:58:31.920Z,7
2017-08-18T11:59:34.717Z,7
2017-08-18T12:00:38.185Z,7
2017-08-18T12:01:40.783Z,7
2017-08-18T12:02:43.826Z,7
2017-08-18T12:03:46.380Z,7
2017-08-18T12:04:49.175Z,7
2017-08-18T12:05:51.910Z,7
2017-08-18T12:06:54.717Z,7
2017-08-18T12:07:57.374Z,7
2017-08-18T12:09:00.180Z,7
2017-08-18T12:10:03.351Z,7
2017-08-18T12:11:06.574Z,7
2017-08-18T12:12:09.037Z,7
2017-08-18T12:13:11.834Z,7
2017-08-18T12:14:14.363Z,7
2017-08-18T12:15:17.164Z,7
2017-08-18T12:16:19.807Z,7
2017-08-18T12:17:22.699Z,7
2017-08-18T12:18:25.234Z,7
2017-08-18T12:19:28.034Z,7
2017-08-18T12:20:31.651Z,7
2017-08-18T12:21:34.802Z,7
2017-08-18T12:22:37.444Z,7
2017-08-18T12:23:40.270Z,7
2017-08-18T12:24:43.242Z,7
2017-08-18T12:25:45.748Z,7
2017-08-18T12:26:48.704Z,7
2017-08-18T12:27:51.539Z,7
2017-08-18T12:28:54.022Z,7
2017-08-18T12:29:57.278Z,7
2017-08-18T12:31:00.134Z,7
2017-08-18T12:32:03.027Z,6.9
2017-08-18T12:33:05.480Z,7
2017-08-18T12:34:08.043Z,7
2017-08-18T12:35:10.526Z,7
2017-08-18T12:36:13.431Z,7
2017-08-18T12:37:15.888Z,7
2017-08-18T12:38:18.833Z,7
2017-08-18T12:39:22.039Z,7
2017-08-18T12:40:24.552Z,7
2017-08-18T12:41:27.771Z,7
2017-08-18T12:42:30.299Z,7
2017-08-18T12:43:32.777Z,7
2017-08-18T12:44:35.712Z,7
2017-08-18T12:45:38.180Z,7
2017-08-18T12:46:40.798Z,6.9
2017-08-18T12:47:43.257Z,7
2017-08-18T12:48:46.574Z,7
2017-08-18T12:49:49.517Z,7
2017-08-18T12:50:52.031Z,7
2017-08-18T12:51:54.486Z,7
2017-08-18T12:52:57.046Z,7
2017-08-18T12:53:59.860Z,7
2017-08-18T12:55:02.463Z,7
2017-08-18T12:56:05.945Z,7
2017-08-18T12:57:08.590Z,7
2017-08-18T12:58:11.735Z,7
2017-08-18T12:59:14.553Z,6.9
2017-08-18T13:00:18.027Z,7
2017-08-18T13:01:21.151Z,7
2017-08-18T13:02:23.615Z,7
2017-08-18T13:03:26.065Z,7
2017-08-18T13:04:28.535Z,7
2017-08-18T13:05:30.997Z,6.9
2017-08-18T13:06:34.121Z,7.1
2017-08-18T13:07:36.585Z,6.9
2017-08-18T13:08:39.082Z,6.9
2017-08-18T13:09:41.722Z,7
2017-08-18T13:10:44.529Z,6.9
2017-08-18T13:11:48.475Z,6.9
2017-08-18T13:12:54.560Z,6.9
2017-08-18T13:13:57.144Z,6.9
2017-08-18T13:14:59.989Z,6.9
2017-08-18T13:16:03.580Z,7
2017-08-18T13:17:06.755Z,6.9
2017-08-18T13:18:09.597Z,6.9
2017-08-18T13:19:12.413Z,7
2017-08-18T13:20:15.218Z,6.9
2017-08-18T13:21:18.040Z,7
2017-08-18T13:22:20.506Z,7
2017-08-18T13:23:23.105Z,6.9
2017-08-18T13:24:25.577Z,6.9
2017-08-18T13:25:28.071Z,6.9
2017-08-18T13:26:30.549Z,6.9
2017-08-18T13:27:33.364Z,6.9
2017-08-18T13:28:36.163Z,6.9
2017-08-18T13:29:38.629Z,6.9
2017-08-18T13:30:41.107Z,7
2017-08-18T13:31:43.573Z,7
2017-08-18T13:32:46.376Z,6.9
2017-08-18T13:33:49.181Z,6.9
2017-08-18T13:34:51.983Z,6.9
2017-08-18T13:35:54.467Z,6.9
2017-08-18T13:36:56.930Z,6.9
2017-08-18T13:37:59.390Z,6.9
2017-08-18T13:39:02.523Z,6.9
2017-08-18T13:40:05.356Z,6.9
2017-08-18T13:41:07.811Z,6.9
2017-08-18T13:42:10.966Z,6.9
2017-08-18T13:43:13.782Z,6.9
2017-08-18T13:44:17.619Z,6.9
2017-08-18T13:45:20.448Z,6.9
2017-08-18T13:46:22.919Z,6.9
2017-08-18T13:47:25.712Z,6.9
2017-08-18T13:48:28.516Z,6.9
2017-08-18T13:49:31.752Z,6.9
2017-08-18T13:50:34.546Z,6.9
2017-08-18T13:51:37.348Z,6.9
2017-08-18T13:52:40.486Z,6.9
2017-08-18T13:53:43.278Z,6.8
2017-08-18T13:54:46.080Z,6.9
2017-08-18T13:55:48.889Z,6.8
2017-08-18T13:56:51.682Z,7
2017-08-18T13:57:54.492Z,6.9
2017-08-18T13:58:56.985Z,6.9
2017-08-18T13:59:59.449Z,6.8
2017-08-18T14:01:02.257Z,6.9
2017-08-18T14:02:04.723Z,6.9
2017-08-18T14:03:07.536Z,6.8
2017-08-18T14:04:10.346Z,6.8
2017-08-18T14:05:13.825Z,6.8
2017-08-18T14:06:16.277Z,6.9
2017-08-18T14:07:18.741Z,6.8
2017-08-18T14:08:21.541Z,6.9
2017-08-18T14:09:24.369Z,6.9
2017-08-18T14:10:26.820Z,6.8
2017-08-18T14:11:29.650Z,6.8
2017-08-18T14:12:32.458Z,6.8
2017-08-18T14:13:35.285Z,6.8
2017-08-18T14:14:38.435Z,6.9
2017-08-18T14:15:41.582Z,6.8
2017-08-18T14:16:44.394Z,6.8
2017-08-18T14:17:47.200Z,6.8
2017-08-18T14:18:49.986Z,6.8
2017-08-18T14:19:53.500Z,6.8
2017-08-18T14:20:55.964Z,6.8
2017-08-18T14:21:59.125Z,6.8
2017-08-18T14:23:01.918Z,6.9
2017-08-18T14:24:04.733Z,6.8
2017-08-18T14:25:07.188Z,6.8
2017-08-18T14:26:09.993Z,6.9
2017-08-18T14:27:12.445Z,6.8
2017-08-18T14:28:14.901Z,6.9
2017-08-18T14:29:18.065Z,6.8
2017-08-18T14:30:20.546Z,6.8
2017-08-18T14:31:23.002Z,6.8
2017-08-18T14:32:26.150Z,6.8
2017-08-18T14:33:28.606Z,6.8
2017-08-18T14:34:31.080Z,6.8
2017-08-18T14:35:33.538Z,6.8
2017-08-18T14:36:36.008Z,6.8
2017-08-18T14:37:38.807Z,6.8
2017-08-18T14:38:41.603Z,6.8
2017-08-18T14:39:44.761Z,6.9
2017-08-18T14:40:47.552Z,6.8